createdAt,value
2022-08-14T00:01:32.977Z,25.02
2022-08-14T00:03:59.869Z,24.94
2022-08-14T00:06:29.060Z,24.95
2022-08-14T00:08:59.271Z,25.04
2022-08-14T00:11:32.209Z,25.20
2022-08-14T00:14:02.202Z,24.95
2022-08-14T00:16:41.590Z,24.91
2022-08-14T00:19:19.497Z,25.00
2022-08-14T00:21:52.193Z,24.92
2022-08-14T00:24:22.879Z,24.89
2022-08-14T00:27:02.427Z,24.84
2022-08-14T00:29:33.251Z,24.93
2022-08-14T00:32:56.450Z,24.83
2022-08-14T00:34:56.611Z,24.71
2022-08-14T00:37:23.556Z,24.72
2022-08-14T00:39:51.144Z,24.91
2022-08-14T00:42:55.194Z,25.02
2022-08-14T00:45:13.851Z,25.01
2022-08-14T00:47:43.284Z,25.10
2022-08-14T00:50:17.668Z,25.03
2022-08-14T00:52:51.010Z,25.01
2022-08-14T00:55:20.057Z,24.98
2022-08-14T00:58:07.681Z,24.97
2022-08-14T01:00:43.113Z,25.04
2022-08-14T01:03:20.230Z,25.04
2022-08-14T01:05:52.046Z,24.87
2022-08-14T01:08:51.978Z,24.86
2022-08-14T01:11:10.152Z,24.88
2022-08-14T01:13:42.638Z,24.89
2022-08-14T01:16:15.006Z,24.99
2022-08-14T01:19:02.391Z,24.80
2022-08-14T01:21:46.832Z,24.96
2022-08-14T01:24:15.509Z,24.91
2022-08-14T01:26:55.900Z,25.01
2022-08-14T01:29:58.128Z,24.88
2022-08-14T01:32:10.689Z,24.82
2022-08-14T01:35:21.071Z,24.80
2022-08-14T01:37:25.553Z,24.99
2022-08-14T01:39:54.511Z,25.09
2022-08-14T01:42:31.340Z,24.90
2022-08-14T01:44:59.247Z,25.06
2022-08-14T01:47:27.368Z,24.95
2022-08-14T01:50:06.375Z,24.53
2022-08-14T01:52:59.127Z,25.04
2022-08-14T01:55:30.570Z,25.12
2022-08-14T01:58:01.787Z,25.09
2022-08-14T02:00:47.868Z,24.79
2022-08-14T02:03:16.196Z,24.81
2022-08-14T02:05:43.541Z,24.97
2022-08-14T02:08:10.784Z,24.80
2022-08-14T02:10:47.118Z,24.75
2022-08-14T02:13:17.314Z,24.84
2022-08-14T02:15:45.760Z,24.81
2022-08-14T02:18:16.277Z,24.71
2022-08-14T02:20:45.383Z,24.84
2022-08-14T02:23:14.373Z,24.83
2022-08-14T02:25:44.220Z,24.73
2022-08-14T02:28:56.069Z,24.82
2022-08-14T02:31:09.091Z,24.77
2022-08-14T02:33:39.092Z,24.55
2022-08-14T02:37:04.654Z,24.61
2022-08-14T02:38:53.841Z,24.49
2022-08-14T02:41:20.703Z,24.62
2022-08-14T02:43:48.465Z,24.73
2022-08-14T02:46:20.436Z,24.56
2022-08-14T02:49:03.950Z,24.35
2022-08-14T02:51:34.287Z,24.49
2022-08-14T02:54:01.881Z,24.68
2022-08-14T02:57:16.013Z,24.63
2022-08-14T02:59:18.830Z,24.65
2022-08-14T03:01:50.954Z,24.60
2022-08-14T03:04:22.528Z,24.59
2022-08-14T03:07:05.971Z,24.57
2022-08-14T03:10:25.370Z,24.55
2022-08-14T03:12:32.084Z,24.39
2022-08-14T03:15:09.130Z,23.93
2022-08-14T03:17:56.160Z,24.45
2022-08-14T03:20:23.747Z,24.58
2022-08-14T03:22:52.529Z,24.68
2022-08-14T03:25:22.154Z,24.69
2022-08-14T03:27:59.130Z,24.97
2022-08-14T03:30:39.554Z,24.84
2022-08-14T03:33:11.993Z,24.75
2022-08-14T03:36:05.413Z,24.73
2022-08-14T03:39:12.539Z,24.98
2022-08-14T03:41:23.293Z,25.09
2022-08-14T03:44:01.481Z,24.94
2022-08-14T03:46:52.062Z,25.12
2022-08-14T03:49:29.285Z,24.97
2022-08-14T03:52:00.671Z,24.92
2022-08-14T03:54:28.491Z,24.90
2022-08-14T03:57:02.354Z,24.79
2022-08-14T03:59:33.242Z,24.65
2022-08-14T04:02:02.209Z,24.80
2022-08-14T04:04:31.973Z,24.97
2022-08-14T04:07:00.868Z,24.71
2022-08-14T04:09:29.413Z,24.97
2022-08-14T04:11:58.232Z,24.90
2022-08-14T04:14:26.664Z,25.01
2022-08-14T04:16:53.519Z,24.85
2022-08-14T04:19:24.088Z,24.93
2022-08-14T04:22:02.282Z,24.65
2022-08-14T04:24:37.992Z,24.83
2022-08-14T04:27:13.421Z,24.85
2022-08-14T04:29:45.368Z,24.79
2022-08-14T04:33:01.074Z,24.67
2022-08-14T04:35:00.993Z,24.91
2022-08-14T04:40:40.525Z,24.77
2022-08-14T04:43:38.774Z,24.72
2022-08-14T04:46:55.789Z,24.81
2022-08-14T04:49:08.108Z,24.86
2022-08-14T04:51:37.441Z,25.18
2022-08-14T04:54:22.627Z,25.28
2022-08-14T04:56:51.383Z,25.16
2022-08-14T04:59:22.254Z,25.30
2022-08-14T05:01:53.882Z,25.18
2022-08-14T05:04:25.107Z,25.36
2022-08-14T05:06:55.391Z,25.31
2022-08-14T05:09:28.700Z,25.37
2022-08-14T05:11:56.450Z,25.20
2022-08-14T05:14:53.611Z,25.23
2022-08-14T05:17:32.053Z,25.27
2022-08-14T05:21:10.799Z,25.39
2022-08-14T05:22:59.815Z,25.39
2022-08-14T05:25:31.004Z,25.32
2022-08-14T05:28:19.309Z,25.44
2022-08-14T05:30:59.870Z,25.26
2022-08-14T05:33:28.603Z,25.43
2022-08-14T05:36:01.135Z,25.44
2022-08-14T05:38:35.317Z,25.39
2022-08-14T05:41:21.899Z,25.45
2022-08-14T05:43:49.383Z,25.20
2022-08-14T05:46:18.770Z,25.38
2022-08-14T05:48:55.201Z,25.69
2022-08-14T05:51:26.224Z,25.89
2022-08-14T05:54:09.972Z,25.95
2022-08-14T05:56:40.203Z,25.86
2022-08-14T05:59:07.535Z,25.94
2022-08-14T06:01:38.027Z,25.92
2022-08-14T06:04:05.177Z,25.75
2022-08-14T06:06:38.009Z,25.52
2022-08-14T06:09:09.799Z,25.52
2022-08-14T06:11:37.965Z,25.28
2022-08-14T06:14:06.614Z,25.48
2022-08-14T06:16:39.549Z,25.21
2022-08-14T06:19:07.373Z,25.04
2022-08-14T06:21:42.408Z,25.21
2022-08-14T06:24:10.421Z,25.45
2022-08-14T06:26:51.958Z,25.24
2022-08-14T06:29:24.049Z,25.57
2022-08-14T06:31:54.498Z,25.41
2022-08-14T06:35:09.809Z,25.33
2022-08-14T06:37:16.839Z,25.45
2022-08-14T06:39:44.303Z,25.37
2022-08-14T06:42:31.310Z,25.33
2022-08-14T06:44:58.453Z,25.35
2022-08-14T06:47:25.343Z,25.33
2022-08-14T06:49:57.702Z,25.45
2022-08-14T06:52:25.412Z,25.33
2022-08-14T06:54:52.352Z,25.18
2022-08-14T06:57:20.700Z,25.27
2022-08-14T06:59:49.934Z,25.36
2022-08-14T07:02:52.716Z,25.39
2022-08-14T07:05:38.812Z,25.40
2022-08-14T07:08:26.495Z,25.53
2022-08-14T07:11:04.107Z,25.49
2022-08-14T07:13:31.343Z,25.38
2022-08-14T07:16:05.370Z,25.33
2022-08-14T07:18:35.190Z,25.28
2022-08-14T07:21:06.018Z,25.29
2022-08-14T07:23:39.926Z,25.44
2022-08-14T07:26:08.243Z,25.42
2022-08-14T07:28:43.007Z,25.75
2022-08-14T07:31:12.575Z,25.63
2022-08-14T07:33:49.935Z,25.58
2022-08-14T07:36:26.922Z,25.62
2022-08-14T07:38:58.781Z,25.73
2022-08-14T07:41:31.399Z,25.81
2022-08-14T07:44:33.084Z,25.45
2022-08-14T07:46:49.722Z,25.53
2022-08-14T07:49:17.769Z,25.86
2022-08-14T07:51:45.839Z,25.87
2022-08-14T07:54:23.268Z,25.87
2022-08-14T07:57:06.530Z,25.74
2022-08-14T07:59:44.699Z,25.53
2022-08-14T08:02:19.688Z,25.78
2022-08-14T08:04:58.980Z,25.84
2022-08-14T08:07:31.769Z,25.79
2022-08-14T08:10:02.405Z,25.80
2022-08-14T08:12:32.347Z,25.93
2022-08-14T08:15:05.664Z,26.13
2022-08-14T08:17:38.608Z,26.02
2022-08-14T08:20:15.752Z,25.96
2022-08-14T08:22:47.831Z,26.18
2022-08-14T08:25:18.031Z,26.11
2022-08-14T08:28:22.409Z,26.22
2022-08-14T08:30:56.488Z,26.34
2022-08-14T08:33:31.921Z,26.51
2022-08-14T08:36:01.127Z,26.06
2022-08-14T08:39:18.838Z,26.48
2022-08-14T08:41:15.858Z,26.37
2022-08-14T08:43:47.194Z,26.59
2022-08-14T08:46:21.385Z,26.57
2022-08-14T08:51:31.202Z,26.20
2022-08-14T08:54:01.290Z,26.25
2022-08-14T08:56:42.915Z,26.46
2022-08-14T08:59:22.768Z,26.32
2022-08-14T09:02:00.609Z,25.85
2022-08-14T09:04:29.283Z,26.38
2022-08-14T09:07:09.270Z,25.96
2022-08-14T09:09:59.364Z,25.83
2022-08-14T09:12:33.107Z,26.46
2022-08-14T09:15:02.056Z,26.21
2022-08-14T09:17:29.159Z,26.17
2022-08-14T09:19:57.080Z,26.36
2022-08-14T09:22:36.203Z,26.49
2022-08-14T09:25:16.212Z,26.53
2022-08-14T09:27:43.813Z,26.61
2022-08-14T09:30:31.224Z,26.08
2022-08-14T09:33:12.860Z,26.35
2022-08-14T09:35:45.960Z,25.55
2022-08-14T09:38:34.806Z,26.48
2022-08-14T09:41:13.611Z,26.50
2022-08-14T09:44:06.887Z,26.82
2022-08-14T09:46:34.727Z,26.56
2022-08-14T09:49:06.708Z,26.91
2022-08-14T09:51:51.617Z,26.92
2022-08-14T09:54:43.479Z,27.18
2022-08-14T09:57:14.131Z,27.29
2022-08-14T09:59:46.476Z,27.18
2022-08-14T10:02:31.978Z,27.67
2022-08-14T10:05:10.574Z,27.52
2022-08-14T10:07:50.649Z,27.86
2022-08-14T10:10:34.700Z,27.58
2022-08-14T10:13:03.371Z,27.64
2022-08-14T10:15:37.140Z,27.69
2022-08-14T10:18:17.320Z,28.18
2022-08-14T10:21:00.734Z,27.93
2022-08-14T10:23:43.507Z,27.68
2022-08-14T10:26:11.932Z,27.66
2022-08-14T10:29:18.373Z,28.08
2022-08-14T10:31:44.934Z,28.09
2022-08-14T10:34:19.055Z,27.74
2022-08-14T10:36:50.123Z,27.61
2022-08-14T10:39:26.046Z,28.02
2022-08-14T10:42:16.513Z,27.48
2022-08-14T10:44:49.187Z,26.83
2022-08-14T10:47:40.820Z,26.43
2022-08-14T10:50:07.802Z,26.94
2022-08-14T10:52:43.223Z,27.18
2022-08-14T10:55:16.319Z,27.31
2022-08-14T10:57:54.885Z,27.89
2022-08-14T11:00:30.365Z,27.61
2022-08-14T11:03:13.296Z,28.32
2022-08-14T11:05:55.631Z,27.48
2022-08-14T11:08:33.106Z,27.81
2022-08-14T11:11:05.554Z,27.76
2022-08-14T11:13:33.645Z,28.11
2022-08-14T11:16:02.288Z,27.89
2022-08-14T11:18:36.101Z,27.96
2022-08-14T11:21:09.477Z,28.35
2022-08-14T11:23:43.812Z,28.31
2022-08-14T11:26:13.544Z,27.23
2022-08-14T11:28:47.381Z,27.66
2022-08-14T11:31:20.050Z,27.95
2022-08-14T11:33:57.629Z,27.87
2022-08-14T11:37:02.478Z,27.88
2022-08-14T11:39:34.709Z,27.47
2022-08-14T11:42:56.328Z,27.81
2022-08-14T11:45:04.298Z,27.96
2022-08-14T11:47:43.968Z,27.75
2022-08-14T11:50:36.172Z,28.20
2022-08-14T11:53:05.939Z,28.32
2022-08-14T11:55:39.726Z,28.37
2022-08-14T11:58:12.201Z,28.22
2022-08-14T12:00:53.934Z,28.34
2022-08-14T12:03:37.325Z,27.81
2022-08-14T12:06:28.682Z,28.05
2022-08-14T12:09:00.329Z,27.89
2022-08-14T12:11:43.302Z,28.27
2022-08-14T12:14:13.287Z,28.33
2022-08-14T12:17:11.783Z,28.27
2022-08-14T12:19:46.242Z,28.59
2022-08-14T12:22:30.376Z,27.35
2022-08-14T12:24:57.517Z,27.54
2022-08-14T12:27:52.753Z,27.76
2022-08-14T12:30:39.812Z,28.11
2022-08-14T12:33:30.518Z,27.95
2022-08-14T12:36:04.212Z,28.02
2022-08-14T12:38:44.215Z,28.18
2022-08-14T12:41:21.628Z,27.62
2022-08-14T12:43:56.798Z,26.75
2022-08-14T12:46:31.683Z,26.64
2022-08-14T12:49:02.387Z,27.14
2022-08-14T12:51:30.925Z,26.72
2022-08-14T12:54:00.099Z,26.55
2022-08-14T12:56:34.014Z,27.36
2022-08-14T12:59:02.845Z,27.29
2022-08-14T13:02:00.213Z,27.01
2022-08-14T13:04:21.619Z,26.77
2022-08-14T13:06:51.277Z,26.26
2022-08-14T13:09:19.577Z,26.32
2022-08-14T13:11:59.193Z,26.50
2022-08-14T13:14:38.521Z,26.11
2022-08-14T13:17:05.557Z,26.44
2022-08-14T13:19:40.518Z,26.36
2022-08-14T13:22:10.148Z,26.20
2022-08-14T13:24:47.749Z,26.32
2022-08-14T13:27:14.959Z,26.02
2022-08-14T13:29:47.516Z,25.84
2022-08-14T13:32:16.287Z,25.52
2022-08-14T13:34:45.966Z,26.17
2022-08-14T13:37:15.708Z,26.67
2022-08-14T13:39:57.303Z,27.41
2022-08-14T13:42:30.889Z,27.17
2022-08-14T13:45:01.215Z,27.34
2022-08-14T13:47:30.284Z,27.30
2022-08-14T13:50:02.771Z,27.33
2022-08-14T13:52:52.613Z,27.26
2022-08-14T13:55:28.046Z,27.25
2022-08-14T13:58:04.417Z,27.53
2022-08-14T14:00:53.609Z,27.27
2022-08-14T14:03:24.451Z,26.68
2022-08-14T14:05:54.258Z,26.47
2022-08-14T14:08:45.712Z,26.88
2022-08-14T14:11:14.237Z,26.68
2022-08-14T14:13:45.712Z,26.80
2022-08-14T14:16:26.628Z,27.28
2022-08-14T14:19:09.606Z,27.15
2022-08-14T14:21:38.083Z,27.33
2022-08-14T14:24:08.243Z,26.81
2022-08-14T14:26:47.871Z,26.80
2022-08-14T14:29:23.989Z,26.37
2022-08-14T14:31:54.067Z,26.82
2022-08-14T14:34:29.601Z,26.46
2022-08-14T14:37:04.442Z,26.17
2022-08-14T14:39:38.126Z,25.76
2022-08-14T14:43:10.853Z,25.86
2022-08-14T14:45:39.777Z,25.49
2022-08-14T14:48:09.260Z,26.02
2022-08-14T14:50:40.690Z,26.14
2022-08-14T14:53:13.042Z,25.93
2022-08-14T14:56:47.854Z,26.54
2022-08-14T14:58:30.929Z,26.25
2022-08-14T15:01:04.418Z,26.56
2022-08-14T15:03:38.445Z,26.57
2022-08-14T15:06:06.782Z,26.97
2022-08-14T15:08:56.578Z,27.30
2022-08-14T15:11:26.287Z,26.74
2022-08-14T15:13:57.953Z,26.41
2022-08-14T15:16:24.912Z,26.84
2022-08-14T15:18:52.865Z,26.68
2022-08-14T15:21:19.816Z,26.91
2022-08-14T15:23:48.145Z,26.83
2022-08-14T15:26:30.976Z,27.25
2022-08-14T15:29:05.208Z,27.58
2022-08-14T15:31:36.605Z,27.46
2022-08-14T15:34:44.794Z,27.97
2022-08-14T15:36:59.691Z,27.93
2022-08-14T15:39:29.642Z,27.70
2022-08-14T15:42:02.014Z,28.29
2022-08-14T15:44:34.216Z,28.44
2022-08-14T15:47:01.702Z,28.59
2022-08-14T15:49:33.133Z,28.52
2022-08-14T15:52:03.312Z,28.67
2022-08-14T15:54:31.771Z,28.40
2022-08-14T15:57:02.796Z,28.52
2022-08-14T15:59:50.131Z,28.39
2022-08-14T16:02:24.536Z,28.47
2022-08-14T16:04:55.369Z,28.36
2022-08-14T16:07:25.283Z,28.46
2022-08-14T16:10:18.320Z,28.35
2022-08-14T16:12:46.666Z,28.07
2022-08-14T16:15:16.748Z,28.00
2022-08-14T16:17:45.501Z,27.98
2022-08-14T16:20:13.114Z,28.10
2022-08-14T16:23:06.463Z,27.84
2022-08-14T16:25:40.620Z,27.93
2022-08-14T16:28:08.054Z,28.04
2022-08-14T16:30:35.487Z,27.35
2022-08-14T16:33:05.834Z,27.92
2022-08-14T16:35:42.265Z,27.97
2022-08-14T16:38:46.156Z,27.98
2022-08-14T16:41:18.255Z,28.06
2022-08-14T16:44:04.726Z,28.05
2022-08-14T16:46:43.035Z,27.93
2022-08-14T16:49:13.847Z,27.98
2022-08-14T16:51:43.640Z,28.01
2022-08-14T16:54:33.688Z,27.77
2022-08-14T16:57:23.031Z,27.78
2022-08-14T16:59:57.759Z,27.78
2022-08-14T17:02:41.792Z,27.85
2022-08-14T17:05:24.891Z,27.98
2022-08-14T17:08:33.428Z,27.91
2022-08-14T17:11:09.760Z,27.81
2022-08-14T17:13:57.784Z,27.86
2022-08-14T17:16:26.265Z,27.80
2022-08-14T17:19:01.011Z,27.67
2022-08-14T17:21:37.276Z,27.45
2022-08-14T17:24:55.881Z,27.51
2022-08-14T17:26:59.980Z,27.53
2022-08-14T17:29:33.735Z,27.57
2022-08-14T17:32:19.302Z,27.34
2022-08-14T17:34:52.098Z,27.40
2022-08-14T17:37:36.373Z,27.44
2022-08-14T17:40:15.972Z,27.37
2022-08-14T17:42:51.809Z,27.40
2022-08-14T17:45:27.015Z,27.55
2022-08-14T17:47:59.196Z,27.62
2022-08-14T17:50:59.782Z,27.62
2022-08-14T17:53:30.302Z,27.46
2022-08-14T17:56:02.381Z,27.47
2022-08-14T17:58:42.153Z,27.40
2022-08-14T18:01:13.598Z,27.38
2022-08-14T18:03:50.369Z,27.46
2022-08-14T18:06:38.191Z,27.35
2022-08-14T18:09:24.750Z,27.24
2022-08-14T18:11:55.286Z,27.32
2022-08-14T18:14:32.584Z,27.33
2022-08-14T18:17:11.283Z,27.28
2022-08-14T18:19:41.513Z,27.02
2022-08-14T18:22:31.002Z,26.84
2022-08-14T18:24:57.754Z,26.72
2022-08-14T18:27:34.885Z,26.67
2022-08-14T18:30:33.325Z,26.53
2022-08-14T18:32:54.874Z,26.53
2022-08-14T18:35:45.925Z,26.59
2022-08-14T18:38:55.335Z,26.56
2022-08-14T18:41:37.693Z,26.36
2022-08-14T18:44:10.690Z,26.54
2022-08-14T18:47:15.285Z,26.63
2022-08-14T18:49:55.522Z,26.58
2022-08-14T18:52:34.473Z,26.77
2022-08-14T18:55:20.909Z,26.69
2022-08-14T18:58:26.653Z,26.69
2022-08-14T19:00:58.719Z,26.64
2022-08-14T19:03:36.285Z,26.49
2022-08-14T19:06:08.988Z,26.64
2022-08-14T19:08:39.625Z,26.70
2022-08-14T19:11:31.977Z,26.81
2022-08-14T19:14:00.018Z,26.67
2022-08-14T19:16:37.839Z,26.63
2022-08-14T19:19:12.325Z,26.48
2022-08-14T19:21:45.299Z,26.50
2022-08-14T19:24:30.088Z,26.48
2022-08-14T19:27:23.637Z,26.50
2022-08-14T19:30:20.431Z,26.61
2022-08-14T19:32:57.440Z,26.48
2022-08-14T19:35:48.783Z,26.46
2022-08-14T19:38:46.359Z,26.81
2022-08-14T19:41:19.881Z,26.69
2022-08-14T19:43:55.624Z,26.12
2022-08-14T19:46:37.736Z,26.10
2022-08-14T19:49:14.778Z,26.49
2022-08-14T19:51:50.686Z,26.22
2022-08-14T19:54:18.799Z,26.52
2022-08-14T19:56:46.182Z,26.60
2022-08-14T19:59:23.587Z,26.40
2022-08-14T20:01:53.135Z,26.33
2022-08-14T20:04:47.054Z,26.08
2022-08-14T20:07:59.263Z,25.93
2022-08-14T20:11:06.628Z,26.44
2022-08-14T20:13:25.266Z,26.35
2022-08-14T20:16:06.775Z,26.25
2022-08-14T20:18:50.199Z,26.13
2022-08-14T20:21:18.562Z,26.35
2022-08-14T20:23:48.168Z,26.13
2022-08-14T20:26:31.366Z,26.20
2022-08-14T20:29:05.334Z,26.36
2022-08-14T20:31:36.536Z,26.30
2022-08-14T20:34:07.895Z,26.24
2022-08-14T20:36:46.429Z,26.12
2022-08-14T20:39:15.242Z,26.00
2022-08-14T20:41:51.074Z,26.08
2022-08-14T20:44:41.530Z,26.05
2022-08-14T20:47:15.346Z,25.91
2022-08-14T20:49:42.399Z,25.36
2022-08-14T20:52:18.863Z,24.96
2022-08-14T20:54:51.511Z,24.24
2022-08-14T20:57:19.380Z,24.88
2022-08-14T20:59:52.971Z,25.60
2022-08-14T21:02:46.610Z,25.73
2022-08-14T21:05:21.345Z,25.51
2022-08-14T21:07:51.067Z,25.47
2022-08-14T21:10:35.755Z,25.08
2022-08-14T21:14:18.844Z,24.42
2022-08-14T21:15:58.159Z,24.41
2022-08-14T21:18:34.363Z,24.29
2022-08-14T21:21:07.926Z,24.13
2022-08-14T21:23:54.492Z,24.76
2022-08-14T21:26:50.940Z,24.92
2022-08-14T21:29:14.532Z,25.08
2022-08-14T21:31:42.746Z,25.24
2022-08-14T21:34:27.226Z,24.39
2022-08-14T21:37:08.780Z,24.73
2022-08-14T21:39:36.225Z,24.82
2022-08-14T21:42:05.681Z,24.28
2022-08-14T21:44:43.236Z,24.58
2022-08-14T21:47:13.560Z,24.66
2022-08-14T21:49:46.198Z,24.45
2022-08-14T21:52:49.073Z,24.35
2022-08-14T21:55:09.598Z,24.31
2022-08-14T21:58:03.950Z,24.25
2022-08-14T22:00:36.539Z,24.01
2022-08-14T22:03:10.727Z,24.82
2022-08-14T22:05:39.942Z,24.76
2022-08-14T22:08:12.470Z,24.35
2022-08-14T22:10:44.795Z,24.66
2022-08-14T22:13:16.797Z,24.79
2022-08-14T22:15:49.989Z,24.57
2022-08-14T22:18:21.183Z,24.85
2022-08-14T22:20:53.934Z,24.99
2022-08-14T22:23:24.837Z,24.81
2022-08-14T22:25:54.728Z,24.88
2022-08-14T22:28:32.678Z,24.52
2022-08-14T22:31:10.270Z,24.75
2022-08-14T22:33:39.757Z,24.80
2022-08-14T22:36:27.584Z,24.36
2022-08-14T22:39:01.295Z,24.21
2022-08-14T22:41:32.779Z,24.60
2022-08-14T22:44:08.664Z,24.86
2022-08-14T22:46:43.450Z,24.40
2022-08-14T22:49:15.467Z,24.12
2022-08-14T22:52:04.422Z,24.47
2022-08-14T22:54:53.803Z,24.39
2022-08-14T22:57:22.522Z,24.62
2022-08-14T22:59:50.203Z,24.36
2022-08-14T23:02:30.287Z,24.83
2022-08-14T23:04:59.289Z,24.55
2022-08-14T23:08:59.554Z,24.67
2022-08-14T23:10:31.604Z,24.85
2022-08-14T23:13:03.665Z,24.87
2022-08-14T23:15:30.706Z,24.75
2022-08-14T23:17:58.496Z,24.70
2022-08-14T23:20:29.582Z,24.53
2022-08-14T23:22:57.234Z,24.20
2022-08-14T23:25:56.666Z,24.86
2022-08-14T23:28:34.309Z,24.49
2022-08-14T23:31:08.472Z,24.67
2022-08-14T23:33:46.163Z,24.42
2022-08-14T23:36:32.015Z,24.20
2022-08-14T23:39:10.171Z,24.22
2022-08-14T23:41:46.452Z,24.08
2022-08-14T23:44:22.558Z,24.25
2022-08-14T23:46:57.182Z,24.15
2022-08-14T23:49:28.739Z,23.85
2022-08-14T23:52:50.942Z,23.70
2022-08-14T23:55:04.785Z,23.80
2022-08-14T23:57:31.542Z,23.50
2022-08-14T23:59:59.856Z,24.21
